Terminal Aerodrome Forecast
Issued by NWS

Current Version | Previous Version | Graphics & Text | Print | Product List | Glossary On
Versions: 1 2 3 4 5 6 7 8 9 10 11 12 13 14 15 16 17 18 19 20 21 22 23 24 25 26 27
000
FTUS41 KRLX 201700 RRA
TAFCKB
TAF
KCKB 201741Z 2018/2118 21008KT P6SM BKN110
     FM202000 22007KT P6SM SCT100
     FM210000 00000KT P6SM BKN110
     FM210400 00000KT P6SM BKN045
     FM210900 VRB03KT P6SM OVC025
     FM211100 27004KT P6SM OVC020
     FM211700 27008KT P6SM OVC025=

USA.gov is the U.S. government's official web portal to all federal, state and local government web resources and services.